sensor_id;sensor_type;location;lat;lon;timestamp;pressure;altitude;pressure_sealevel;temperature;humidity
19508;BME280;40157;42.566;27.526;2023-02-25T00:00:33;100421.81;;;6.07;87.15
19508;BME280;40157;42.566;27.526;2023-02-25T00:02:33;100542.69;;;6.76;87.18
19508;BME280;40157;42.566;27.526;2023-02-25T00:04:34;100511.81;;;6.58;87.11
19508;BME280;40157;42.566;27.526;2023-02-25T00:06:34;100520.16;;;6.47;87.28
19508;BME280;40157;42.566;27.526;2023-02-25T00:08:35;100491.56;;;6.19;87.26
19508;BME280;40157;42.566;27.526;2023-02-25T00:10:35;100528.34;;;6.31;87.26
19508;BME280;40157;42.566;27.526;2023-02-25T00:12:36;100497.34;;;5.83;87.91
19508;BME280;40157;42.566;27.526;2023-02-25T00:14:37;100514.63;;;5.81;88.47
19508;BME280;40157;42.566;27.526;2023-02-25T00:16:37;100511.09;;;5.79;88.72
19508;BME280;40157;42.566;27.526;2023-02-25T00:18:38;100543.97;;;6.02;89.12
19508;BME280;40157;42.566;27.526;2023-02-25T00:20:43;100528.00;;;5.91;89.30
19508;BME280;40157;42.566;27.526;2023-02-25T00:22:44;100544.00;;;6.04;89.21
19508;BME280;40157;42.566;27.526;2023-02-25T00:24:44;100523.66;;;5.92;89.33
19508;BME280;40157;42.566;27.526;2023-02-25T00:26:44;100517.28;;;5.82;89.66
19508;BME280;40157;42.566;27.526;2023-02-25T00:28:45;100519.56;;;5.71;90.33
19508;BME280;40157;42.566;27.526;2023-02-25T00:30:45;100503.94;;;5.71;90.19
19508;BME280;40157;42.566;27.526;2023-02-25T00:32:46;100514.25;;;5.68;90.61
19508;BME280;40157;42.566;27.526;2023-02-25T00:34:46;100485.97;;;5.52;90.90
19508;BME280;40157;42.566;27.526;2023-02-25T00:36:47;100531.22;;;5.84;91.11
19508;BME280;40157;42.566;27.526;2023-02-25T00:38:51;100521.81;;;5.88;91.03
19508;BME280;40157;42.566;27.526;2023-02-25T00:40:52;100498.91;;;5.78;90.99
19508;BME280;40157;42.566;27.526;2023-02-25T00:42:52;100499.03;;;5.81;91.14
19508;BME280;40157;42.566;27.526;2023-02-25T00:44:53;100494.13;;;5.90;90.77
19508;BME280;40157;42.566;27.526;2023-02-25T00:46:53;100498.47;;;5.91;90.56
19508;BME280;40157;42.566;27.526;2023-02-25T00:48:54;100505.63;;;5.97;90.49
19508;BME280;40157;42.566;27.526;2023-02-25T00:50:54;100507.19;;;5.91;90.64
19508;BME280;40157;42.566;27.526;2023-02-25T00:52:54;100468.91;;;5.60;91.06
19508;BME280;40157;42.566;27.526;2023-02-25T00:54:55;100497.41;;;5.84;91.27
19508;BME280;40157;42.566;27.526;2023-02-25T00:56:55;100506.72;;;5.78;91.66
19508;BME280;40157;42.566;27.526;2023-02-25T00:58:56;100444.28;;;5.49;92.07
19508;BME280;40157;42.566;27.526;2023-02-25T01:00:56;100500.59;;;5.75;92.88
19508;BME280;40157;42.566;27.526;2023-02-25T01:02:57;100490.09;;;5.72;93.60
19508;BME280;40157;42.566;27.526;2023-02-25T01:04:57;100453.09;;;5.54;94.25
19508;BME280;40157;42.566;27.526;2023-02-25T01:06:58;100469.19;;;5.69;94.54
19508;BME280;40157;42.566;27.526;2023-02-25T01:08:59;100480.44;;;5.68;94.83
19508;BME280;40157;42.566;27.526;2023-02-25T01:10:59;100490.09;;;5.72;95.73
19508;BME280;40157;42.566;27.526;2023-02-25T01:13:00;100408.88;;;5.25;96.32
19508;BME280;40157;42.566;27.526;2023-02-25T01:15:00;100472.84;;;5.74;96.33
19508;BME280;40157;42.566;27.526;2023-02-25T01:17:01;100394.50;;;5.36;96.53
19508;BME280;40157;42.566;27.526;2023-02-25T01:19:07;100463.41;;;5.78;96.55
19508;BME280;40157;42.566;27.526;2023-02-25T01:21:17;100433.38;;;5.61;96.60
19508;BME280;40157;42.566;27.526;2023-02-25T01:23:18;100451.03;;;5.71;96.75
19508;BME280;40157;42.566;27.526;2023-02-25T01:25:19;100444.03;;;5.68;96.89
19508;BME280;40157;42.566;27.526;2023-02-25T01:27:19;100438.88;;;5.70;96.98
19508;BME280;40157;42.566;27.526;2023-02-25T01:29:26;100454.19;;;5.88;96.63
19508;BME280;40157;42.566;27.526;2023-02-25T01:31:27;100379.97;;;5.43;96.54
19508;BME280;40157;42.566;27.526;2023-02-25T01:33:28;100449.03;;;5.91;96.48
19508;BME280;40157;42.566;27.526;2023-02-25T01:35:28;100444.88;;;5.96;95.88
19508;BME280;40157;42.566;27.526;2023-02-25T01:37:29;100428.16;;;5.88;95.67
19508;BME280;40157;42.566;27.526;2023-02-25T01:39:29;100446.66;;;5.97;95.04
19508;BME280;40157;42.566;27.526;2023-02-25T01:41:33;100458.53;;;5.89;94.50
19508;BME280;40157;42.566;27.526;2023-02-25T01:43:34;100434.84;;;5.80;94.14
19508;BME280;40157;42.566;27.526;2023-02-25T01:45:37;100419.97;;;5.75;93.69
19508;BME280;40157;42.566;27.526;2023-02-25T01:47:42;100448.16;;;5.90;93.73
19508;BME280;40157;42.566;27.526;2023-02-25T01:49:45;100449.03;;;5.91;93.86
19508;BME280;40157;42.566;27.526;2023-02-25T01:51:49;100440.22;;;5.86;93.76
19508;BME280;40157;42.566;27.526;2023-02-25T01:53:50;100430.72;;;5.86;93.63
19508;BME280;40157;42.566;27.526;2023-02-25T01:55:52;100451.03;;;5.98;93.46
19508;BME280;40157;42.566;27.526;2023-02-25T01:57:52;100444.78;;;5.93;93.47
19508;BME280;40157;42.566;27.526;2023-02-25T01:59:53;100426.38;;;5.87;93.55
19508;BME280;40157;42.566;27.526;2023-02-25T02:01:54;100371.84;;;5.61;93.38
19508;BME280;40157;42.566;27.526;2023-02-25T02:03:55;100459.22;;;6.10;93.53
19508;BME280;40157;42.566;27.526;2023-02-25T02:06:02;100425.06;;;6.00;93.33
19508;BME280;40157;42.566;27.526;2023-02-25T02:08:06;100462.97;;;6.20;93.05
19508;BME280;40157;42.566;27.526;2023-02-25T02:10:08;100452.56;;;6.20;92.79
19508;BME280;40157;42.566;27.526;2023-02-25T02:12:09;100432.50;;;6.18;93.12
19508;BME280;40157;42.566;27.526;2023-02-25T02:14:12;100408.59;;;6.01;93.17
19508;BME280;40157;42.566;27.526;2023-02-25T02:18:18;100435.25;;;6.22;93.50
19508;BME280;40157;42.566;27.526;2023-02-25T02:20:26;100446.25;;;6.42;93.45
19508;BME280;40157;42.566;27.526;2023-02-25T02:34:05;100444.59;;;6.76;91.84
19508;BME280;40157;42.566;27.526;2023-02-25T02:36:20;100396.13;;;6.50;91.48
19508;BME280;40157;42.566;27.526;2023-02-25T02:38:34;100405.75;;;6.54;90.71
19508;BME280;40157;42.566;27.526;2023-02-25T02:41:36;100474.16;;;6.78;90.64
19508;BME280;40157;42.566;27.526;2023-02-25T02:48:06;100443.81;;;6.80;90.43
19508;BME280;40157;42.566;27.526;2023-02-25T02:50:18;100445.63;;;6.83;89.99
19508;BME280;40157;42.566;27.526;2023-02-25T02:52:27;100385.72;;;6.51;89.77
19508;BME280;40157;42.566;27.526;2023-02-25T02:54:31;100441.31;;;6.83;89.58
19508;BME280;40157;42.566;27.526;2023-02-25T02:56:36;100385.63;;;6.46;89.14
19508;BME280;40157;42.566;27.526;2023-02-25T02:58:45;100442.03;;;6.79;89.36
19508;BME280;40157;42.566;27.526;2023-02-25T03:00:49;100441.22;;;6.80;89.10
19508;BME280;40157;42.566;27.526;2023-02-25T03:03:00;100411.06;;;6.57;89.18
19508;BME280;40157;42.566;27.526;2023-02-25T03:05:07;100414.84;;;6.68;89.39
19508;BME280;40157;42.566;27.526;2023-02-25T03:07:10;100413.84;;;6.63;89.43
19508;BME280;40157;42.566;27.526;2023-02-25T03:09:18;100437.88;;;6.86;89.58
19508;BME280;40157;42.566;27.526;2023-02-25T03:11:21;100345.56;;;6.41;89.64
19508;BME280;40157;42.566;27.526;2023-02-25T03:13:21;100424.16;;;6.92;89.58
19508;BME280;40157;42.566;27.526;2023-02-25T03:15:22;100435.66;;;7.00;89.53
19508;BME280;40157;42.566;27.526;2023-02-25T03:17:32;100416.38;;;6.93;89.75
19508;BME280;40157;42.566;27.526;2023-02-25T03:19:44;100406.72;;;6.91;89.66
19508;BME280;40157;42.566;27.526;2023-02-25T03:22:09;100422.78;;;7.08;89.43
19508;BME280;40157;42.566;27.526;2023-02-25T03:24:18;100412.28;;;7.03;89.35
19508;BME280;40157;42.566;27.526;2023-02-25T03:26:29;100413.41;;;7.13;88.97
19508;BME280;40157;42.566;27.526;2023-02-25T03:28:32;100431.81;;;7.20;88.55
19508;BME280;40157;42.566;27.526;2023-02-25T03:32:35;100391.19;;;6.94;88.80
19508;BME280;40157;42.566;27.526;2023-02-25T03:34:42;100433.66;;;7.25;89.02
19508;BME280;40157;42.566;27.526;2023-02-25T03:37:18;100428.47;;;7.25;89.42
19508;BME280;40157;42.566;27.526;2023-02-25T03:39:25;100412.50;;;7.12;89.58
19508;BME280;40157;42.566;27.526;2023-02-25T03:41:30;100432.88;;;7.29;89.43
19508;BME280;40157;42.566;27.526;2023-02-25T03:43:39;100408.31;;;7.19;89.13
19508;BME280;40157;42.566;27.526;2023-02-25T03:45:42;100369.25;;;6.85;88.98
19508;BME280;40157;42.566;27.526;2023-02-25T03:47:43;100437.22;;;7.28;89.08
19508;BME280;40157;42.566;27.526;2023-02-25T03:49:57;100411.81;;;7.21;88.74
19508;BME280;40157;42.566;27.526;2023-02-25T03:52:02;100409.97;;;7.15;88.49
19508;BME280;40157;42.566;27.526;2023-02-25T03:54:04;100420.56;;;7.21;88.69
19508;BME280;40157;42.566;27.526;2023-02-25T03:56:08;100428.59;;;7.31;88.91
19508;BME280;40157;42.566;27.526;2023-02-25T03:58:08;100438.34;;;7.38;88.80
19508;BME280;40157;42.566;27.526;2023-02-25T04:02:19;100433.19;;;7.41;88.79
19508;BME280;40157;42.566;27.526;2023-02-25T04:04:20;100425.94;;;7.29;88.54
19508;BME280;40157;42.566;27.526;2023-02-25T04:06:22;100438.25;;;7.35;88.75
19508;BME280;40157;42.566;27.526;2023-02-25T04:08:23;100437.47;;;7.39;88.78
19508;BME280;40157;42.566;27.526;2023-02-25T04:10:24;100416.34;;;7.27;88.87
19508;BME280;40157;42.566;27.526;2023-02-25T04:12:25;100390.03;;;7.17;88.47
19508;BME280;40157;42.566;27.526;2023-02-25T04:14:26;100427.03;;;7.39;88.52
19508;BME280;40157;42.566;27.526;2023-02-25T04:16:27;100421.91;;;7.42;88.59
19508;BME280;40157;42.566;27.526;2023-02-25T04:18:27;100429.84;;;7.47;88.66
19508;BME280;40157;42.566;27.526;2023-02-25T04:20:28;100430.66;;;7.44;88.69
19508;BME280;40157;42.566;27.526;2023-02-25T04:22:32;100432.56;;;7.51;88.60
19508;BME280;40157;42.566;27.526;2023-02-25T04:24:33;100443.69;;;7.44;89.10
19508;BME280;40157;42.566;27.526;2023-02-25T04:26:34;100423.69;;;7.43;89.37
19508;BME280;40157;42.566;27.526;2023-02-25T04:28:34;100398.91;;;7.26;89.12
19508;BME280;40157;42.566;27.526;2023-02-25T04:30:35;100441.94;;;7.43;89.09
19508;BME280;40157;42.566;27.526;2023-02-25T04:32:36;100409.13;;;7.16;89.21
19508;BME280;40157;42.566;27.526;2023-02-25T04:34:36;100441.00;;;7.41;89.13
19508;BME280;40157;42.566;27.526;2023-02-25T04:36:37;100419.78;;;7.26;89.63
19508;BME280;40157;42.566;27.526;2023-02-25T04:38:37;100421.63;;;7.30;89.77
19508;BME280;40157;42.566;27.526;2023-02-25T04:40:38;100422.41;;;7.27;89.88
19508;BME280;40157;42.566;27.526;2023-02-25T04:42:39;100437.47;;;7.39;89.96
19508;BME280;40157;42.566;27.526;2023-02-25T04:44:40;100356.34;;;6.90;90.29
19508;BME280;40157;42.566;27.526;2023-02-25T04:46:41;100405.03;;;7.26;90.37
19508;BME280;40157;42.566;27.526;2023-02-25T04:48:41;100371.63;;;7.10;90.48
19508;BME280;40157;42.566;27.526;2023-02-25T04:50:42;100379.59;;;7.17;90.30
19508;BME280;40157;42.566;27.526;2023-02-25T04:52:42;100431.56;;;7.45;90.48
19508;BME280;40157;42.566;27.526;2023-02-25T04:54:43;100405.97;;;7.30;90.28
19508;BME280;40157;42.566;27.526;2023-02-25T04:56:43;100421.78;;;7.37;90.29
19508;BME280;40157;42.566;27.526;2023-02-25T04:58:44;100426.34;;;7.45;90.19
19508;BME280;40157;42.566;27.526;2023-02-25T05:00:45;100428.88;;;7.41;90.56
19508;BME280;40157;42.566;27.526;2023-02-25T05:02:49;100407.16;;;7.44;90.49
19508;BME280;40157;42.566;27.526;2023-02-25T05:04:49;100404.63;;;7.47;90.22
19508;BME280;40157;42.566;27.526;2023-02-25T05:06:50;100375.50;;;7.27;90.35
19508;BME280;40157;42.566;27.526;2023-02-25T05:08:50;100402.91;;;7.46;89.93
19508;BME280;40157;42.566;27.526;2023-02-25T05:10:51;100430.88;;;7.53;90.19
19508;BME280;40157;42.566;27.526;2023-02-25T05:12:51;100418.66;;;7.52;90.08
19508;BME280;40157;42.566;27.526;2023-02-25T05:14:52;100434.41;;;7.55;90.10
19508;BME280;40157;42.566;27.526;2023-02-25T05:16:52;100400.09;;;7.38;89.64
19508;BME280;40157;42.566;27.526;2023-02-25T05:18:53;100422.22;;;7.54;89.83
19508;BME280;40157;42.566;27.526;2023-02-25T05:20:53;100402.94;;;7.49;89.81
19508;BME280;40157;42.566;27.526;2023-02-25T05:22:54;100388.72;;;7.35;90.03
19508;BME280;40157;42.566;27.526;2023-02-25T05:24:54;100423.97;;;7.55;89.90
19508;BME280;40157;42.566;27.526;2023-02-25T05:26:55;100416.09;;;7.54;90.07
19508;BME280;40157;42.566;27.526;2023-02-25T05:28:56;100421.41;;;7.57;90.02
19508;BME280;40157;42.566;27.526;2023-02-25T05:30:57;100415.06;;;7.47;90.15
19508;BME280;40157;42.566;27.526;2023-02-25T05:32:57;100426.66;;;7.58;90.09
19508;BME280;40157;42.566;27.526;2023-02-25T05:34:57;100420.72;;;7.66;89.93
19508;BME280;40157;42.566;27.526;2023-02-25T05:36:58;100425.03;;;7.64;90.18
19508;BME280;40157;42.566;27.526;2023-02-25T05:38:58;100433.03;;;7.71;89.81
19508;BME280;40157;42.566;27.526;2023-02-25T05:41:03;100438.31;;;7.73;89.66
19508;BME280;40157;42.566;27.526;2023-02-25T05:43:06;100362.66;;;7.35;89.45
19508;BME280;40157;42.566;27.526;2023-02-25T05:45:08;100446.25;;;7.79;89.33
19508;BME280;40157;42.566;27.526;2023-02-25T05:47:09;100449.75;;;7.80;89.21
19508;BME280;40157;42.566;27.526;2023-02-25T05:49:10;100449.00;;;7.85;89.34
19508;BME280;40157;42.566;27.526;2023-02-25T05:51:16;100444.63;;;7.84;89.30
19508;BME280;40157;42.566;27.526;2023-02-25T05:53:17;100425.28;;;7.74;89.27
19508;BME280;40157;42.566;27.526;2023-02-25T05:55:18;100426.09;;;7.72;89.58
19508;BME280;40157;42.566;27.526;2023-02-25T05:57:19;100375.84;;;7.43;89.60
19508;BME280;40157;42.566;27.526;2023-02-25T05:59:19;100406.72;;;7.62;89.58
19508;BME280;40157;42.566;27.526;2023-02-25T06:01:23;100448.28;;;7.92;89.60
19508;BME280;40157;42.566;27.526;2023-02-25T06:03:26;100432.72;;;7.97;91.55
19508;BME280;40157;42.566;27.526;2023-02-25T06:05:27;100418.16;;;8.07;92.61
19508;BME280;40157;42.566;27.526;2023-02-25T06:07:30;100428.16;;;8.26;92.78
19508;BME280;40157;42.566;27.526;2023-02-25T06:09:30;100360.41;;;7.91;91.61
19508;BME280;40157;42.566;27.526;2023-02-25T06:11:31;100414.94;;;8.20;91.21
19508;BME280;40157;42.566;27.526;2023-02-25T06:13:32;100425.09;;;8.47;91.00
19508;BME280;40157;42.566;27.526;2023-02-25T06:15:33;100419.09;;;8.51;90.34
19508;BME280;40157;42.566;27.526;2023-02-25T06:17:35;100426.22;;;8.60;89.60
19508;BME280;40157;42.566;27.526;2023-02-25T06:19:36;100436.75;;;8.63;89.23
19508;BME280;40157;42.566;27.526;2023-02-25T06:21:36;100365.88;;;8.46;89.04
19508;BME280;40157;42.566;27.526;2023-02-25T06:23:38;100359.94;;;8.55;88.63
19508;BME280;40157;42.566;27.526;2023-02-25T06:25:39;100358.41;;;8.66;88.49
19508;BME280;40157;42.566;27.526;2023-02-25T06:27:40;100439.50;;;9.20;88.14
19508;BME280;40157;42.566;27.526;2023-02-25T06:29:40;100417.56;;;9.12;87.71
19508;BME280;40157;42.566;27.526;2023-02-25T06:31:41;100395.69;;;9.06;87.29
19508;BME280;40157;42.566;27.526;2023-02-25T06:33:42;100413.28;;;9.17;87.27
19508;BME280;40157;42.566;27.526;2023-02-25T06:35:43;100396.53;;;9.05;87.56
19508;BME280;40157;42.566;27.526;2023-02-25T06:37:44;100433.75;;;9.39;87.63
19508;BME280;40157;42.566;27.526;2023-02-25T06:39:44;100428.25;;;9.25;87.38
19508;BME280;40157;42.566;27.526;2023-02-25T06:41:45;100413.34;;;9.20;87.50
19508;BME280;40157;42.566;27.526;2023-02-25T06:43:46;100398.34;;;9.08;87.85
19508;BME280;40157;42.566;27.526;2023-02-25T06:45:51;100447.44;;;9.24;88.43
19508;BME280;40157;42.566;27.526;2023-02-25T06:47:51;100443.19;;;9.31;88.46
19508;BME280;40157;42.566;27.526;2023-02-25T06:49:51;100379.69;;;8.88;88.74
19508;BME280;40157;42.566;27.526;2023-02-25T06:51:52;100404.28;;;9.01;88.94
19508;BME280;40157;42.566;27.526;2023-02-25T06:53:52;100426.34;;;9.15;89.35
19508;BME280;40157;42.566;27.526;2023-02-25T06:55:53;100430.81;;;9.21;89.30
19508;BME280;40157;42.566;27.526;2023-02-25T06:57:53;100429.88;;;9.19;89.63
19508;BME280;40157;42.566;27.526;2023-02-25T06:59:54;100414.00;;;9.06;90.42
19508;BME280;40157;42.566;27.526;2023-02-25T07:01:55;100439.41;;;9.14;90.80
19508;BME280;40157;42.566;27.526;2023-02-25T07:03:55;100407.03;;;9.07;91.32
19508;BME280;40157;42.566;27.526;2023-02-25T07:05:56;100394.81;;;9.06;91.56
19508;BME280;40157;42.566;27.526;2023-02-25T07:07:56;100386.13;;;9.08;92.08
19508;BME280;40157;42.566;27.526;2023-02-25T07:09:57;100423.03;;;9.25;92.23
19508;BME280;40157;42.566;27.526;2023-02-25T07:11:57;100342.06;;;8.78;92.17
19508;BME280;40157;42.566;27.526;2023-02-25T07:13:58;100396.78;;;9.19;92.32
19508;BME280;40157;42.566;27.526;2023-02-25T07:15:59;100341.31;;;8.87;92.42
19508;BME280;40157;42.566;27.526;2023-02-25T07:17:59;100356.44;;;9.05;92.17
19508;BME280;40157;42.566;27.526;2023-02-25T07:19:59;100407.72;;;9.50;93.69
19508;BME280;40157;42.566;27.526;2023-02-25T07:22:00;100397.25;;;9.50;93.56
19508;BME280;40157;42.566;27.526;2023-02-25T07:24:01;100371.91;;;9.46;93.65
19508;BME280;40157;42.566;27.526;2023-02-25T07:26:03;100398.19;;;9.55;93.49
19508;BME280;40157;42.566;27.526;2023-02-25T07:28:04;100387.00;;;9.66;93.57
19508;BME280;40157;42.566;27.526;2023-02-25T07:30:05;100405.59;;;9.86;93.66
19508;BME280;40157;42.566;27.526;2023-02-25T07:32:05;100397.72;;;9.84;93.41
19508;BME280;40157;42.566;27.526;2023-02-25T07:34:08;100407.47;;;9.93;93.19
19508;BME280;40157;42.566;27.526;2023-02-25T07:36:10;100411.84;;;9.95;93.52
19508;BME280;40157;42.566;27.526;2023-02-25T07:38:10;100378.50;;;9.82;93.26
19508;BME280;40157;42.566;27.526;2023-02-25T07:40:11;100402.38;;;10.05;93.13
19508;BME280;40157;42.566;27.526;2023-02-25T07:42:12;100395.50;;;10.12;92.79
19508;BME280;40157;42.566;27.526;2023-02-25T07:44:13;100402.66;;;10.27;92.56
19508;BME280;40157;42.566;27.526;2023-02-25T07:46:13;100390.41;;;10.23;92.38
19508;BME280;40157;42.566;27.526;2023-02-25T07:48:14;100393.09;;;10.30;91.96
19508;BME280;40157;42.566;27.526;2023-02-25T07:50:14;100417.75;;;10.45;91.80
19508;BME280;40157;42.566;27.526;2023-02-25T07:52:14;100378.31;;;10.34;91.68
19508;BME280;40157;42.566;27.526;2023-02-25T07:54:15;100391.66;;;10.55;91.74
19508;BME280;40157;42.566;27.526;2023-02-25T07:56:18;100415.44;;;10.71;91.98
19508;BME280;40157;42.566;27.526;2023-02-25T07:58:19;100385.72;;;10.72;92.62
19508;BME280;40157;42.566;27.526;2023-02-25T08:00:19;100388.44;;;10.81;92.66
19508;BME280;40157;42.566;27.526;2023-02-25T08:02:20;100373.63;;;10.86;91.98
19508;BME280;40157;42.566;27.526;2023-02-25T08:04:21;100346.44;;;10.78;91.84
19508;BME280;40157;42.566;27.526;2023-02-25T08:06:22;100407.03;;;11.09;91.64
19508;BME280;40157;42.566;27.526;2023-02-25T08:08:22;100379.06;;;11.08;91.08
19508;BME280;40157;42.566;27.526;2023-02-25T08:10:23;100380.03;;;11.24;91.09
19508;BME280;40157;42.566;27.526;2023-02-25T08:12:23;100365.19;;;11.24;90.54
19508;BME280;40157;42.566;27.526;2023-02-25T08:14:24;100377.53;;;11.38;90.18
19508;BME280;40157;42.566;27.526;2023-02-25T08:16:24;100373.22;;;11.44;90.07
19508;BME280;40157;42.566;27.526;2023-02-25T08:18:24;100378.53;;;11.57;90.00
19508;BME280;40157;42.566;27.526;2023-02-25T08:20:25;100381.25;;;11.68;89.89
19508;BME280;40157;42.566;27.526;2023-02-25T08:22:26;100360.22;;;11.72;89.47
19508;BME280;40157;42.566;27.526;2023-02-25T08:24:26;100382.22;;;11.87;88.82
19508;BME280;40157;42.566;27.526;2023-02-25T08:26:27;100373.50;;;11.89;88.42
19508;BME280;40157;42.566;27.526;2023-02-25T08:28:28;100377.97;;;12.04;88.31
19508;BME280;40157;42.566;27.526;2023-02-25T08:30:30;100327.03;;;11.82;87.90
19508;BME280;40157;42.566;27.526;2023-02-25T08:32:30;100362.22;;;12.12;88.04
19508;BME280;40157;42.566;27.526;2023-02-25T08:34:34;100375.41;;;12.24;87.99
19508;BME280;40157;42.566;27.526;2023-02-25T08:36:35;100369.31;;;12.31;87.57
19508;BME280;40157;42.566;27.526;2023-02-25T08:38:37;100321.06;;;12.15;87.48
19508;BME280;40157;42.566;27.526;2023-02-25T08:40:38;100334.25;;;12.38;87.83
19508;BME280;40157;42.566;27.526;2023-02-25T08:42:39;100360.56;;;12.54;87.56
19508;BME280;40157;42.566;27.526;2023-02-25T08:44:39;100341.31;;;12.55;87.26
19508;BME280;40157;42.566;27.526;2023-02-25T08:46:40;100315.00;;;12.52;87.20
19508;BME280;40157;42.566;27.526;2023-02-25T08:48:40;100330.81;;;12.76;85.70
19508;BME280;40157;42.566;27.526;2023-02-25T08:50:41;100343.09;;;12.93;85.53
19508;BME280;40157;42.566;27.526;2023-02-25T08:52:42;100341.34;;;13.01;85.33
19508;BME280;40157;42.566;27.526;2023-02-25T08:54:42;100329.97;;;13.01;84.32
19508;BME280;40157;42.566;27.526;2023-02-25T08:56:43;100336.06;;;13.17;83.19
19508;BME280;40157;42.566;27.526;2023-02-25T08:58:43;100339.59;;;13.26;82.30
19508;BME280;40157;42.566;27.526;2023-02-25T09:00:44;100336.97;;;13.36;81.71
19508;BME280;40157;42.566;27.526;2023-02-25T09:02:46;100322.03;;;13.30;81.65
19508;BME280;40157;42.566;27.526;2023-02-25T09:04:50;100328.16;;;13.54;83.07
19508;BME280;40157;42.566;27.526;2023-02-25T09:06:50;100326.38;;;13.65;83.47
19508;BME280;40157;42.566;27.526;2023-02-25T09:08:54;100311.41;;;13.70;83.36
19508;BME280;40157;42.566;27.526;2023-02-25T09:10:55;100300.03;;;13.66;82.93
19508;BME280;40157;42.566;27.526;2023-02-25T09:12:55;100316.63;;;13.90;82.86
19508;BME280;40157;42.566;27.526;2023-02-25T09:14:56;100243.06;;;13.42;81.16
19508;BME280;40157;42.566;27.526;2023-02-25T09:16:56;100237.78;;;13.39;79.00
19508;BME280;40157;42.566;27.526;2023-02-25T09:18:57;100294.75;;;13.74;79.19
19508;BME280;40157;42.566;27.526;2023-02-25T09:20:58;100320.16;;;13.84;79.40
19508;BME280;40157;42.566;27.526;2023-02-25T09:22:58;100327.16;;;13.85;79.86
19508;BME280;40157;42.566;27.526;2023-02-25T09:24:59;100294.66;;;13.93;79.75
19508;BME280;40157;42.566;27.526;2023-02-25T09:27:01;100285.81;;;14.03;79.29
19508;BME280;40157;42.566;27.526;2023-02-25T09:29:07;100263.88;;;14.01;79.82
19508;BME280;40157;42.566;27.526;2023-02-25T09:31:07;100268.16;;;14.17;80.41
19508;BME280;40157;42.566;27.526;2023-02-25T09:33:08;100181.38;;;13.83;79.51
19508;BME280;40157;42.566;27.526;2023-02-25T09:35:08;100257.53;;;14.30;79.32
19508;BME280;40157;42.566;27.526;2023-02-25T09:37:11;100247.78;;;14.44;80.59
19508;BME280;40157;42.566;27.526;2023-02-25T09:39:13;100246.63;;;14.79;81.32
19508;BME280;40157;42.566;27.526;2023-02-25T09:41:34;100250.72;;;15.14;80.79
19508;BME280;40157;42.566;27.526;2023-02-25T09:43:39;100240.03;;;15.23;79.64
19508;BME280;40157;42.566;27.526;2023-02-25T09:45:41;100262.69;;;15.46;78.82
19508;BME280;40157;42.566;27.526;2023-02-25T09:47:55;100243.28;;;15.47;77.94
19508;BME280;40157;42.566;27.526;2023-02-25T09:52:39;100248.88;;;15.95;76.05
19508;BME280;40157;42.566;27.526;2023-02-25T09:55:21;100253.09;;;16.08;75.32
19508;BME280;40157;42.566;27.526;2023-02-25T09:57:22;100228.53;;;16.00;75.46
19508;BME280;40157;42.566;27.526;2023-02-25T09:59:22;100263.66;;;16.08;75.41
19508;BME280;40157;42.566;27.526;2023-02-25T10:01:38;100260.84;;;16.22;74.37
19508;BME280;40157;42.566;27.526;2023-02-25T10:04:38;100242.44;;;16.15;74.66
19508;BME280;40157;42.566;27.526;2023-02-25T10:06:46;100227.31;;;16.24;74.54
19508;BME280;40157;42.566;27.526;2023-02-25T10:11:51;100220.13;;;16.33;74.48
19508;BME280;40157;42.566;27.526;2023-02-25T10:16:09;100219.91;;;16.45;73.64
19508;BME280;40157;42.566;27.526;2023-02-25T10:25:14;100239.88;;;16.66;72.09
19508;BME280;40157;42.566;27.526;2023-02-25T10:27:28;100211.59;;;16.68;72.18
19508;BME280;40157;42.566;27.526;2023-02-25T10:29:43;100175.50;;;16.64;72.12
19508;BME280;40157;42.566;27.526;2023-02-25T10:31:48;100175.97;;;16.88;71.60
19508;BME280;40157;42.566;27.526;2023-02-25T10:33:50;100182.75;;;17.02;71.64
19508;BME280;40157;42.566;27.526;2023-02-25T10:38:15;100160.38;;;17.19;70.54
19508;BME280;40157;42.566;27.526;2023-02-25T10:40:18;100165.69;;;17.19;69.35
19508;BME280;40157;42.566;27.526;2023-02-25T10:42:19;100162.94;;;17.24;69.57
19508;BME280;40157;42.566;27.526;2023-02-25T10:44:20;100059.94;;;16.63;69.45
19508;BME280;40157;42.566;27.526;2023-02-25T10:49:00;100149.31;;;17.42;68.37
19508;BME280;40157;42.566;27.526;2023-02-25T10:51:10;100143.84;;;17.48;68.48
19508;BME280;40157;42.566;27.526;2023-02-25T10:53:17;100135.69;;;17.57;68.04
19508;BME280;40157;42.566;27.526;2023-02-25T10:55:28;100123.88;;;17.72;67.83
19508;BME280;40157;42.566;27.526;2023-02-25T10:57:40;100150.75;;;17.96;66.56
19508;BME280;40157;42.566;27.526;2023-02-25T10:59:43;100075.13;;;17.78;66.06
19508;BME280;40157;42.566;27.526;2023-02-25T11:01:44;100126.19;;;18.25;65.73
19508;BME280;40157;42.566;27.526;2023-02-25T11:03:59;100140.03;;;18.37;65.33
19508;BME280;40157;42.566;27.526;2023-02-25T11:06:16;100092.00;;;18.13;64.42
19508;BME280;40157;42.566;27.526;2023-02-25T11:08:32;100135.31;;;18.48;64.84
19508;BME280;40157;42.566;27.526;2023-02-25T11:10:33;100113.06;;;18.54;64.09
19508;BME280;40157;42.566;27.526;2023-02-25T11:14:44;100089.50;;;18.74;62.10
19508;BME280;40157;42.566;27.526;2023-02-25T11:16:45;100050.31;;;18.51;61.85
19508;BME280;40157;42.566;27.526;2023-02-25T11:18:51;100076.06;;;18.80;61.40
19508;BME280;40157;42.566;27.526;2023-02-25T11:20:55;100071.03;;;18.70;60.73
19508;BME280;40157;42.566;27.526;2023-02-25T11:22:58;100006.63;;;18.30;60.05
19508;BME280;40157;42.566;27.526;2023-02-25T11:25:05;100082.44;;;18.73;59.67